Time;durP1;ratioP1;P1;durP2;ratioP2;P2;SDS_P1;SDS_P2;PMS_P1;PMS_P2;Temp;Humidity;BMP_temperature;BMP_pressure;BME280_temperature;BME280_humidity;BME280_pressure;Samples;Min_cycle;Max_cycle;Signal;HPM_P1;HPM_P2
2021/05/07 00:02:05;;;;;;;;;;;;;;;;;;5095830;28;20036;-51
2021/05/07 00:04:35;;;;;;;5.78;2.80;;;;;;;;;;5095683;27;19935;-54
2021/05/07 00:07:01;;;;;;;7.75;3.20;;;;;;;;;;5094674;28;20046;-50
2021/05/07 00:09:27;;;;;;;6.65;2.95;;;;;;;;;;5094939;28;20056;-54
2021/05/07 00:11:53;;;;;;;7.13;3.15;;;;;;;;;;5092262;28;20044;-57
2021/05/07 00:14:19;;;;;;;10.30;3.22;;;;;;;;;;5095040;28;20044;-57
2021/05/07 00:16:45;;;;;;;6.82;2.97;;;;;;;;;;5098362;27;20040;-59
2021/05/07 00:19:11;;;;;;;7.53;3.08;;;;;;;;;;5091364;28;20035;-51
2021/05/07 00:21:38;;;;;;;9.52;3.45;;;;;;;;;;5097623;28;20043;-58
2021/05/07 00:24:04;;;;;;;8.18;3.10;;;;;;;;;;5094499;28;20509;-57
2021/05/07 00:26:30;;;;;;;15.35;3.10;;;;;;;;;;5097393;28;20081;-54
2021/05/07 00:28:56;;;;;;;9.73;3.95;;;;;;;;;;5097681;28;20040;-57
2021/05/07 00:31:22;;;;;;;6.25;3.00;;;;;;;;;;5091951;28;20499;-54
2021/05/07 00:33:48;;;;;;;7.82;3.30;;;;;;;;;;5099636;28;20036;-54
2021/05/07 00:36:15;;;;;;;11.38;4.13;;;;;;;;;;5093000;27;20047;-52
2021/05/07 00:38:41;;;;;;;11.45;4.90;;;;;;;;;;5097530;27;20120;-54
2021/05/07 00:41:10;;;;;;;10.35;4.38;;;;;;;;;;5091220;28;20028;-52
2021/05/07 00:43:37;;;;;;;8.43;3.47;;;;;;;;;;5096997;28;20040;-54
2021/05/07 00:46:03;;;;;;;9.32;3.40;;;;;;;;;;5095859;28;20032;-51
2021/05/07 00:48:30;;;;;;;7.43;3.05;;;;;;;;;;5096735;27;20052;-51
2021/05/07 00:50:56;;;;;;;8.55;3.20;;;;;;;;;;5091177;28;20051;-54
2021/05/07 00:53:22;;;;;;;8.52;3.53;;;;;;;;;;5096073;28;20040;-50
2021/05/07 00:55:51;;;;;;;9.32;3.53;;;;;;;;;;5093113;28;20038;-50
2021/05/07 00:58:17;;;;;;;;;;;;;;;;;;5099353;28;20032;-52
2021/05/07 01:00:42;;;;;;;7.05;2.70;;;;;;;;;;5090858;27;20004;-53
2021/05/07 01:03:09;;;;;;;6.25;2.65;;;;;;;;;;5097155;28;20117;-48
2021/05/07 01:05:37;;;;;;;6.38;2.80;;;;;;;;;;5091942;28;20036;-53
2021/05/07 01:08:04;;;;;;;6.07;2.70;;;;;;;;;;5097567;27;20054;-49
2021/05/07 01:10:29;;;;;;;8.82;3.10;;;;;;;;;;5097234;28;20048;-52
2021/05/07 01:12:56;;;;;;;8.13;3.30;;;;;;;;;;5095724;28;20046;-52
2021/05/07 01:15:23;;;;;;;6.80;2.92;;;;;;;;;;5097126;28;20042;-55
2021/05/07 01:17:51;;;;;;;7.20;2.80;;;;;;;;;;5090720;28;20055;-53
2021/05/07 01:20:18;;;;;;;7.40;2.92;;;;;;;;;;5094889;28;20048;-49
2021/05/07 01:22:45;;;;;;;7.50;3.00;;;;;;;;;;5092380;28;20093;-49
2021/05/07 01:25:12;;;;;;;6.55;2.80;;;;;;;;;;5101908;27;20050;-55
2021/05/07 01:27:39;;;;;;;6.22;3.00;;;;;;;;;;5093386;28;20051;-54
2021/05/07 01:30:10;;;;;;;6.00;2.60;;;;;;;;;;5093599;28;20037;-52
2021/05/07 01:32:37;;;;;;;6.63;3.15;;;;;;;;;;5093971;28;20046;-57
2021/05/07 01:35:04;;;;;;;6.43;3.00;;;;;;;;;;5096934;28;20072;-56
2021/05/07 01:37:31;;;;;;;8.60;3.17;;;;;;;;;;5092169;28;20145;-52
2021/05/07 01:39:57;;;;;;;7.43;3.67;;;;;;;;;;5092678;28;20036;-57
2021/05/07 01:42:23;;;;;;;8.68;2.95;;;;;;;;;;5090929;28;20120;-54
2021/05/07 01:44:51;;;;;;;10.35;3.58;;;;;;;;;;5096569;28;20036;-52
2021/05/07 01:47:17;;;;;;;6.00;3.08;;;;;;;;;;5092145;28;20070;-56
2021/05/07 01:49:43;;;;;;;6.72;3.00;;;;;;;;;;5097178;28;20128;-55
2021/05/07 01:52:09;;;;;;;6.97;3.33;;;;;;;;;;5093689;28;20407;-59
2021/05/07 01:54:36;;;;;;;11.82;3.35;;;;;;;;;;5090440;28;20046;-56
2021/05/07 01:57:02;;;;;;;7.40;3.30;;;;;;;;;;5094109;28;20050;-54
2021/05/07 01:59:28;;;;;;;7.22;3.35;;;;;;;;;;5088500;28;20040;-51
2021/05/07 02:01:54;;;;;;;8.50;3.58;;;;;;;;;;5100554;28;20040;-48
2021/05/07 02:04:26;;;;;;;7.45;3.25;;;;;;;;;;5097559;27;20036;-56
2021/05/07 02:06:52;;;;;;;8.13;3.15;;;;;;;;;;5100026;27;20036;-51
2021/05/07 02:09:18;;;;;;;6.03;2.85;;;;;;;;;;5098949;28;20073;-48
2021/05/07 02:11:45;;;;;;;5.00;2.55;;;;;;;;;;5104798;27;20068;-48
2021/05/07 02:14:11;;;;;;;8.38;3.10;;;;;;;;;;5099265;28;20051;-49
2021/05/07 02:16:37;;;;;;;10.18;3.13;;;;;;;;;;5104187;28;20051;-52
2021/05/07 02:19:03;;;;;;;8.27;3.25;;;;;;;;;;5095295;28;20045;-52
2021/05/07 02:21:30;;;;;;;7.55;3.13;;;;;;;;;;5084495;28;20040;-50
2021/05/07 02:23:58;;;;;;;7.38;3.10;;;;;;;;;;5082169;28;20056;-51
2021/05/07 02:26:24;;;;;;;13.55;3.55;;;;;;;;;;5096022;28;20141;-53
2021/05/07 02:28:51;;;;;;;8.25;3.03;;;;;;;;;;5100710;28;20048;-54
2021/05/07 02:31:16;;;;;;;9.27;3.17;;;;;;;;;;5104697;28;20039;-51
2021/05/07 02:33:42;;;;;;;6.47;3.08;;;;;;;;;;5102437;28;20040;-51
2021/05/07 02:36:09;;;;;;;11.40;3.33;;;;;;;;;;5100625;28;20036;-50
2021/05/07 02:38:37;;;;;;;8.30;3.30;;;;;;;;;;5103114;28;20346;-48
2021/05/07 02:41:03;;;;;;;7.68;3.50;;;;;;;;;;5100693;28;20036;-50
2021/05/07 02:43:29;;;;;;;7.00;3.55;;;;;;;;;;5104110;28;20060;-50
2021/05/07 02:45:56;;;;;;;8.60;3.67;;;;;;;;;;5098926;28;20047;-51
2021/05/07 02:48:22;;;;;;;11.98;3.75;;;;;;;;;;5104125;28;20032;-49
2021/05/07 02:50:48;;;;;;;8.30;3.17;;;;;;;;;;5102947;28;20052;-49
2021/05/07 02:53:14;;;;;;;9.38;3.88;;;;;;;;;;5099653;28;20036;-47
2021/05/07 02:55:40;;;;;;;9.48;3.42;;;;;;;;;;5074055;28;20041;-54
2021/05/07 02:58:06;;;;;;;8.35;3.50;;;;;;;;;;5062664;28;20040;-58
2021/05/07 03:00:32;;;;;;;7.88;3.63;;;;;;;;;;5061279;28;20035;-55
2021/05/07 03:02:59;;;;;;;8.65;4.13;;;;;;;;;;5063079;28;20045;-52
2021/05/07 03:05:27;;;;;;;7.00;3.83;;;;;;;;;;5062878;28;20415;-57
2021/05/07 03:07:53;;;;;;;12.10;4.03;;;;;;;;;;5082771;28;20097;-55
2021/05/07 03:10:19;;;;;;;8.65;4.18;;;;;;;;;;5080076;28;20036;-58
2021/05/07 03:12:45;;;;;;;8.75;4.07;;;;;;;;;;5061999;28;20049;-55
2021/05/07 03:15:11;;;;;;;8.27;3.83;;;;;;;;;;5063137;28;20102;-53
2021/05/07 03:17:38;;;;;;;9.32;4.15;;;;;;;;;;5077021;28;20055;-57
2021/05/07 03:20:06;;;;;;;9.57;3.95;;;;;;;;;;5082552;28;20047;-57
2021/05/07 03:22:32;;;;;;;10.27;4.28;;;;;;;;;;5078880;28;20041;-48
2021/05/07 03:24:58;;;;;;;9.50;4.03;;;;;;;;;;5080646;28;20110;-47
2021/05/07 03:27:24;;;;;;;10.75;4.07;;;;;;;;;;5072023;28;20040;-51
2021/05/07 03:29:50;;;;;;;9.38;4.15;;;;;;;;;;5082627;28;20051;-55
2021/05/07 03:32:16;;;;;;;9.15;3.95;;;;;;;;;;5080938;28;20024;-54
2021/05/07 03:34:42;;;;;;;11.45;4.35;;;;;;;;;;5082764;28;20036;-53
2021/05/07 03:37:09;;;;;;;8.98;4.35;;;;;;;;;;5080487;28;20121;-52
2021/05/07 03:39:35;;;;;;;11.10;4.35;;;;;;;;;;5082531;28;20040;-49
2021/05/07 03:42:01;;;;;;;10.82;4.40;;;;;;;;;;5078790;28;20116;-52
2021/05/07 03:44:29;;;;;;;9.80;4.78;;;;;;;;;;5082749;28;20032;-47
2021/05/07 03:46:55;;;;;;;9.02;4.22;;;;;;;;;;5083768;28;20048;-50
2021/05/07 03:49:21;;;;;;;8.98;4.45;;;;;;;;;;5103034;28;20047;-54
2021/05/07 03:51:47;;;;;;;9.25;3.30;;;;;;;;;;5104437;27;20364;-50
2021/05/07 03:54:14;;;;;;;8.02;3.40;;;;;;;;;;5091985;27;20040;-57
2021/05/07 03:56:40;;;;;;;8.60;3.50;;;;;;;;;;5083477;28;20032;-50
2021/05/07 03:59:06;;;;;;;7.15;3.13;;;;;;;;;;5079226;28;20044;-51
2021/05/07 04:01:32;;;;;;;6.05;2.05;;;;;;;;;;5082461;28;20099;-48
2021/05/07 04:04:00;;;;;;;4.57;1.60;;;;;;;;;;5079121;28;20059;-51
2021/05/07 04:06:27;;;;;;;2.83;1.60;;;;;;;;;;5083680;28;20043;-48
2021/05/07 04:09:00;;;;;;;3.97;1.60;;;;;;;;;;5077751;28;20235;-49
2021/05/07 04:11:31;;;;;;;4.18;1.42;;;;;;;;;;5085812;28;20062;-46
2021/05/07 04:13:57;;;;;;;2.63;1.27;;;;;;;;;;5088800;28;20044;-48
2021/05/07 04:16:23;;;;;;;9.73;1.42;;;;;;;;;;5083381;28;20230;-53
2021/05/07 04:18:49;;;;;;;4.45;1.23;;;;;;;;;;5088103;28;20051;-48
2021/05/07 04:21:15;;;;;;;2.03;0.98;;;;;;;;;;5086860;28;20047;-47
2021/05/07 04:23:42;;;;;;;3.33;1.30;;;;;;;;;;5097362;28;20040;-52
2021/05/07 04:26:08;;;;;;;2.30;1.10;;;;;;;;;;5092976;28;20048;-55
2021/05/07 04:28:34;;;;;;;2.50;1.05;;;;;;;;;;5097800;28;20121;-49
2021/05/07 04:31:00;;;;;;;2.35;1.25;;;;;;;;;;5083382;28;20044;-52
2021/05/07 04:33:26;;;;;;;3.63;1.00;;;;;;;;;;5081513;28;20047;-49
2021/05/07 04:35:53;;;;;;;2.08;0.93;;;;;;;;;;5078450;28;20105;-55
2021/05/07 04:38:19;;;;;;;2.90;1.10;;;;;;;;;;5081532;28;20040;-49
2021/05/07 04:40:44;;;;;;;2.20;0.88;;;;;;;;;;5076572;28;20047;-56
2021/05/07 04:43:10;;;;;;;2.22;0.90;;;;;;;;;;5082910;28;20054;-52
2021/05/07 04:45:38;;;;;;;1.25;0.85;;;;;;;;;;5092732;28;20116;-54
2021/05/07 04:48:11;;;;;;;5.47;1.08;;;;;;;;;;5101066;28;20040;-59
2021/05/07 04:50:37;;;;;;;3.10;1.00;;;;;;;;;;5087555;27;20079;-54
2021/05/07 04:53:03;;;;;;;3.00;0.98;;;;;;;;;;5082761;28;20036;-56
2021/05/07 04:55:29;;;;;;;3.60;1.40;;;;;;;;;;5092367;28;20067;-52
2021/05/07 04:57:55;;;;;;;2.92;1.20;;;;;;;;;;5097503;28;20404;-51
2021/05/07 05:00:21;;;;;;;2.25;0.95;;;;;;;;;;5092826;27;20116;-51
2021/05/07 05:02:48;;;;;;;2.03;0.98;;;;;;;;;;5096201;28;20039;-54
2021/05/07 05:05:17;;;;;;;2.03;1.13;;;;;;;;;;5090369;28;20055;-54
2021/05/07 05:07:47;;;;;;;4.22;1.20;;;;;;;;;;5098932;28;20031;-56
2021/05/07 05:10:15;;;;;;;1.80;1.10;;;;;;;;;;5109788;27;20036;-55
2021/05/07 05:12:41;;;;;;;1.33;0.80;;;;;;;;;;5094449;27;20028;-48
2021/05/07 05:15:09;;;;;;;2.08;0.90;;;;;;;;;;5100346;28;20054;-54
2021/05/07 05:17:35;;;;;;;2.42;1.00;;;;;;;;;;5093356;27;20043;-56
2021/05/07 05:20:03;;;;;;;2.72;1.08;;;;;;;;;;5096891;27;20051;-52
2021/05/07 05:22:29;;;;;;;1.93;0.90;;;;;;;;;;5090764;27;20036;-55
2021/05/07 05:25:03;;;;;;;2.47;1.05;;;;;;;;;;5102776;27;20259;-54
2021/05/07 05:27:29;;;;;;;1.80;1.20;;;;;;;;;;5092871;28;20049;-53
2021/05/07 05:29:55;;;;;;;2.65;1.23;;;;;;;;;;5114477;28;20047;-49
2021/05/07 05:32:21;;;;;;;5.47;1.63;;;;;;;;;;5080385;28;20063;-56
2021/05/07 05:34:48;;;;;;;12.63;4.88;;;;;;;;;;5084137;28;20032;-51
2021/05/07 05:37:14;;;;;;;7.28;2.70;;;;;;;;;;5078866;28;20043;-51
2021/05/07 05:39:40;;;;;;;4.40;1.55;;;;;;;;;;5101315;28;20075;-53
2021/05/07 05:42:06;;;;;;;2.90;1.40;;;;;;;;;;5080660;28;20473;-50
2021/05/07 05:44:33;;;;;;;4.25;1.23;;;;;;;;;;5089068;28;20104;-52
2021/05/07 05:47:00;;;;;;;3.30;1.50;;;;;;;;;;5104195;28;20044;-50
2021/05/07 05:49:26;;;;;;;2.85;1.33;;;;;;;;;;5086107;28;20036;-51
2021/05/07 05:51:51;;;;;;;4.47;1.40;;;;;;;;;;5082582;28;20036;-52
2021/05/07 05:54:19;;;;;;;6.03;1.65;;;;;;;;;;5082028;28;20043;-49
2021/05/07 05:56:46;;;;;;;3.60;1.60;;;;;;;;;;5084084;28;20050;-53
2021/05/07 05:59:12;;;;;;;3.08;1.40;;;;;;;;;;5078550;28;20121;-57
2021/05/07 06:01:37;;;;;;;7.53;2.92;;;;;;;;;;5098855;28;20048;-55
2021/05/07 06:04:04;;;;;;;23.65;7.63;;;;;;;;;;5080561;28;20136;-58
2021/05/07 06:06:30;;;;;;;11.60;4.78;;;;;;;;;;5092202;28;20035;-56
2021/05/07 06:08:56;;;;;;;6.63;2.30;;;;;;;;;;5093781;28;20063;-53
2021/05/07 06:11:23;;;;;;;3.17;1.50;;;;;;;;;;5108084;28;20043;-55
2021/05/07 06:13:49;;;;;;;4.10;1.75;;;;;;;;;;5119680;28;20042;-54
2021/05/07 06:16:43;;;;;;;4.13;1.42;;;;;;;;;;5103855;28;20036;-53
2021/05/07 06:19:10;;;;;;;4.35;1.67;;;;;;;;;;5014831;28;20034;-51
2021/05/07 06:21:36;;;;;;;3.95;1.60;;;;;;;;;;5085276;28;20092;-54
2021/05/07 06:24:16;;;;;;;3.15;1.40;;;;;;;;;;5109793;28;20024;-57
2021/05/07 06:26:42;;;;;;;6.00;1.63;;;;;;;;;;5107090;28;20051;-57
2021/05/07 06:29:08;;;;;;;6.90;1.70;;;;;;;;;;5102391;28;20391;-48
2021/05/07 06:31:34;;;;;;;3.17;1.40;;;;;;;;;;5107731;28;20039;-49
2021/05/07 06:34:04;;;;;;;7.03;1.60;;;;;;;;;;5097330;28;20039;-50
2021/05/07 06:36:32;;;;;;;3.65;1.50;;;;;;;;;;5085203;28;20052;-51
2021/05/07 06:38:58;;;;;;;3.30;1.60;;;;;;;;;;5086769;28;20517;-50
2021/05/07 06:41:24;;;;;;;3.08;1.65;;;;;;;;;;5106461;28;20031;-53
2021/05/07 06:43:52;;;;;;;3.03;1.45;;;;;;;;;;5102194;28;20050;-52
2021/05/07 06:46:20;;;;;;;6.85;2.00;;;;;;;;;;5104419;28;20039;-56
2021/05/07 06:48:46;;;;;;;6.25;2.00;;;;;;;;;;5103365;28;20043;-59
2021/05/07 06:51:12;;;;;;;3.10;1.80;;;;;;;;;;5102863;28;20036;-57
2021/05/07 06:53:42;;;;;;;3.60;1.70;;;;;;;;;;5072119;28;20031;-61
2021/05/07 06:56:09;;;;;;;3.75;1.60;;;;;;;;;;5090285;28;20128;-57
2021/05/07 06:58:36;;;;;;;4.85;1.40;;;;;;;;;;5110225;28;20036;-57
2021/05/07 07:01:03;;;;;;;7.15;1.50;;;;;;;;;;5121456;27;20096;-56
2021/05/07 07:03:29;;;;;;;4.82;1.60;;;;;;;;;;5109065;28;20035;-57
2021/05/07 07:06:06;;;;;;;5.70;1.55;;;;;;;;;;5123717;27;20063;-56
2021/05/07 07:08:32;;;;;;;6.20;1.75;;;;;;;;;;5109896;28;20043;-57
2021/05/07 07:10:58;;;;;;;3.15;1.33;;;;;;;;;;5096114;28;20075;-55
2021/05/07 07:13:24;;;;;;;2.88;1.40;;;;;;;;;;5102800;28;20035;-55
2021/05/07 07:15:59;;;;;;;2.90;1.50;;;;;;;;;;5099273;28;20036;-55
2021/05/07 07:18:26;;;;;;;4.15;1.38;;;;;;;;;;5086403;28;20036;-55
2021/05/07 07:20:51;;;;;;;4.03;1.50;;;;;;;;;;5085212;28;20039;-58
2021/05/07 07:23:17;;;;;;;2.90;1.50;;;;;;;;;;5088073;28;20046;-57
2021/05/07 07:25:44;;;;;;;3.65;1.65;;;;;;;;;;5087397;28;20047;-58
2021/05/07 07:28:11;;;;;;;3.70;1.77;;;;;;;;;;5105761;27;20063;-58
2021/05/07 07:30:37;;;;;;;3.63;1.67;;;;;;;;;;5085883;27;20036;-57
2021/05/07 07:33:03;;;;;;;4.03;1.58;;;;;;;;;;5088188;28;20052;-52
2021/05/07 07:35:39;;;;;;;4.22;1.60;;;;;;;;;;5079871;28;20113;-54
2021/05/07 07:38:05;;;;;;;5.45;1.45;;;;;;;;;;5123400;27;20127;-50
2021/05/07 07:40:31;;;;;;;9.48;1.42;;;;;;;;;;5108883;28;20060;-59
2021/05/07 07:42:57;;;;;;;2.65;1.23;;;;;;;;;;5087199;28;20047;-52
2021/05/07 07:45:30;;;;;;;2.42;1.33;;;;;;;;;;5108365;27;20403;-54
2021/05/07 07:47:56;;;;;;;3.92;1.73;;;;;;;;;;5100007;27;20039;-51
2021/05/07 07:50:22;;;;;;;2.50;1.20;;;;;;;;;;5101656;28;20095;-53
2021/05/07 07:52:49;;;;;;;3.55;1.75;;;;;;;;;;5086079;28;20032;-52
2021/05/07 07:55:21;;;;;;;4.63;1.67;;;;;;;;;;5086736;28;20121;-50
2021/05/07 07:57:47;;;;;;;3.22;1.77;;;;;;;;;;5103991;27;20090;-55
2021/05/07 08:00:14;;;;;;;4.15;1.88;;;;;;;;;;5105238;28;20048;-50
2021/05/07 08:02:40;;;;;;;4.60;1.95;;;;;;;;;;5103489;27;20031;-55
2021/05/07 08:05:16;;;;;;;5.55;1.80;;;;;;;;;;5095278;28;20047;-53
2021/05/07 08:07:42;;;;;;;4.05;1.40;;;;;;;;;;5104846;28;20079;-52
2021/05/07 08:10:09;;;;;;;7.85;2.03;;;;;;;;;;5108952;28;20036;-53
2021/05/07 08:12:36;;;;;;;4.47;1.67;;;;;;;;;;5099328;28;20062;-59
2021/05/07 08:15:02;;;;;;;3.85;1.75;;;;;;;;;;5079254;28;20036;-60
2021/05/07 08:17:28;;;;;;;4.70;2.10;;;;;;;;;;5066633;28;20125;-60
2021/05/07 08:19:54;;;;;;;5.00;1.83;;;;;;;;;;5085808;28;20041;-58
2021/05/07 08:22:20;;;;;;;5.80;1.90;;;;;;;;;;5084709;28;20028;-52
2021/05/07 08:24:47;;;;;;;5.43;2.10;;;;;;;;;;5082476;28;20031;-55
2021/05/07 08:27:14;;;;;;;7.78;2.05;;;;;;;;;;5065795;28;20062;-55
2021/05/07 08:29:40;;;;;;;6.65;1.90;;;;;;;;;;5113110;27;20047;-52
2021/05/07 08:32:06;;;;;;;4.63;2.03;;;;;;;;;;5107005;28;20028;-60
2021/05/07 08:34:41;;;;;;;3.22;1.70;;;;;;;;;;5093284;28;20032;-53
2021/05/07 08:37:08;;;;;;;4.05;1.80;;;;;;;;;;5087380;28;20031;-59
2021/05/07 08:39:33;;;;;;;5.55;2.00;;;;;;;;;;5085736;28;20035;-56
2021/05/07 08:42:00;;;;;;;4.68;2.13;;;;;;;;;;5087987;28;20064;-60
2021/05/07 08:44:27;;;;;;;3.92;1.63;;;;;;;;;;5084595;28;20042;-53
2021/05/07 08:46:55;;;;;;;12.65;2.00;;;;;;;;;;5087705;28;20047;-57
2021/05/07 08:49:21;;;;;;;10.70;1.85;;;;;;;;;;5108014;28;20031;-54
2021/05/07 08:51:47;;;;;;;5.65;1.83;;;;;;;;;;5108319;28;20035;-58
2021/05/07 08:54:33;;;;;;;3.53;1.55;;;;;;;;;;5104960;28;22116;-59
2021/05/07 08:56:58;;;;;;;22.20;2.95;;;;;;;;;;5028060;28;20041;-57
2021/05/07 08:59:24;;;;;;;12.38;2.58;;;;;;;;;;5106027;28;20068;-56
2021/05/07 09:01:51;;;;;;;9.98;2.30;;;;;;;;;;5105575;28;20036;-55
2021/05/07 09:04:26;;;;;;;5.32;1.50;;;;;;;;;;5085065;28;20048;-56
2021/05/07 09:06:52;;;;;;;11.38;2.15;;;;;;;;;;5086586;28;20035;-59
2021/05/07 09:09:21;;;;;;;5.20;1.90;;;;;;;;;;5088844;28;20611;-59
2021/05/07 09:11:47;;;;;;;8.00;1.73;;;;;;;;;;5084063;28;20043;-58
2021/05/07 09:14:16;;;;;;;4.05;1.70;;;;;;;;;;5087487;28;20052;-59
2021/05/07 09:16:56;;;;;;;6.68;1.77;;;;;;;;;;5081707;28;20048;-51
2021/05/07 09:19:23;;;;;;;13.00;2.00;;;;;;;;;;5086131;28;20034;-56
2021/05/07 09:21:49;;;;;;;5.05;1.80;;;;;;;;;;5075499;28;20028;-50
2021/05/07 09:24:29;;;;;;;4.25;1.80;;;;;;;;;;5087970;28;20032;-54
2021/05/07 09:26:55;;;;;;;4.13;1.67;;;;;;;;;;5085412;28;20035;-55
2021/05/07 09:29:22;;;;;;;3.38;1.77;;;;;;;;;;5105111;27;20046;-52
2021/05/07 09:31:49;;;;;;;4.13;1.40;;;;;;;;;;5102974;28;20032;-57
2021/05/07 09:34:18;;;;;;;2.72;1.50;;;;;;;;;;5104924;28;20064;-53
2021/05/07 09:36:44;;;;;;;11.75;2.20;;;;;;;;;;5084935;28;20055;-52
2021/05/07 09:39:11;;;;;;;3.60;1.77;;;;;;;;;;5087010;28;20117;-54
2021/05/07 09:41:40;;;;;;;8.23;2.05;;;;;;;;;;5110207;28;20049;-61
2021/05/07 09:44:22;;;;;;;5.35;1.77;;;;;;;;;;5106533;28;20109;-58
2021/05/07 09:46:50;;;;;;;7.57;2.00;;;;;;;;;;5111033;28;20050;-62
2021/05/07 09:49:23;;;;;;;3.13;1.70;;;;;;;;;;5086675;28;20050;-54
2021/05/07 09:51:50;;;;;;;4.35;1.70;;;;;;;;;;5081586;28;20048;-56
2021/05/07 09:54:35;;;;;;;4.90;1.83;;;;;;;;;;5093230;28;20050;-52
2021/05/07 09:57:01;;;;;;;7.38;2.10;;;;;;;;;;5042763;28;20060;-56
2021/05/07 09:59:28;;;;;;;6.43;2.00;;;;;;;;;;5097293;28;20035;-56
2021/05/07 10:01:54;;;;;;;7.72;1.80;;;;;;;;;;5100103;28;20084;-52
2021/05/07 10:04:21;;;;;;;5.30;1.88;;;;;;;;;;5086601;28;20024;-56
2021/05/07 10:06:48;;;;;;;5.75;2.13;;;;;;;;;;5084046;28;20112;-61
2021/05/07 10:09:21;;;;;;;3.15;1.60;;;;;;;;;;5124720;27;20036;-55
2021/05/07 10:11:49;;;;;;;5.13;1.95;;;;;;;;;;5123396;28;20036;-59
2021/05/07 10:14:21;;;;;;;3.58;1.70;;;;;;;;;;5084895;28;20052;-61
2021/05/07 10:16:47;;;;;;;4.82;1.70;;;;;;;;;;5071339;28;20039;-58
2021/05/07 10:19:14;;;;;;;8.52;1.73;;;;;;;;;;5100377;28;20039;-61
2021/05/07 10:21:41;;;;;;;20.77;7.75;;;;;;;;;;5106566;28;20039;-59
2021/05/07 10:24:20;;;;;;;5.97;1.98;;;;;;;;;;5103462;28;20047;-57
2021/05/07 10:26:48;;;;;;;5.85;1.88;;;;;;;;;;5081348;28;20044;-58
2021/05/07 10:29:16;;;;;;;3.75;1.58;;;;;;;;;;5062306;28;20040;-57
2021/05/07 10:31:49;;;;;;;6.50;1.75;;;;;;;;;;5065230;28;20041;-58
2021/05/07 10:34:16;;;;;;;4.38;1.90;;;;;;;;;;5062260;28;20040;-60
2021/05/07 10:36:43;;;;;;;4.38;1.70;;;;;;;;;;5064775;28;20021;-57
2021/05/07 10:39:15;;;;;;;5.72;1.83;;;;;;;;;;5072939;28;20056;-58
2021/05/07 10:41:42;;;;;;;2.42;1.42;;;;;;;;;;5084912;28;20032;-56
2021/05/07 10:44:08;;;;;;;5.90;1.98;;;;;;;;;;5074477;28;20463;-56
2021/05/07 10:46:34;;;;;;;5.85;1.88;;;;;;;;;;5065658;28;20047;-59
2021/05/07 10:49:00;;;;;;;4.03;2.00;;;;;;;;;;5064422;28;20377;-58
2021/05/07 10:51:27;;;;;;;5.07;1.92;;;;;;;;;;5066162;28;20404;-59
2021/05/07 10:54:03;;;;;;;4.30;1.75;;;;;;;;;;5062542;28;20122;-59
2021/05/07 10:56:32;;;;;;;3.10;1.67;;;;;;;;;;5066184;28;20037;-55
2021/05/07 10:59:10;;;;;;;5.47;1.45;;;;;;;;;;5061158;28;20605;-57
2021/05/07 11:01:36;;;;;;;4.10;1.80;;;;;;;;;;5065656;28;20036;-57
2021/05/07 11:04:05;;;;;;;4.53;1.80;;;;;;;;;;5061567;28;20118;-58
2021/05/07 11:06:32;;;;;;;14.27;2.20;;;;;;;;;;5046643;28;20033;-57
2021/05/07 11:08:58;;;;;;;5.45;2.35;;;;;;;;;;5045402;28;20048;-56
2021/05/07 11:11:24;;;;;;;5.75;2.40;;;;;;;;;;5041291;28;20163;-51
2021/05/07 11:13:50;;;;;;;6.03;2.60;;;;;;;;;;5046272;28;20073;-49
2021/05/07 11:16:19;;;;;;;4.88;2.03;;;;;;;;;;5052437;28;20063;-53
2021/05/07 11:18:48;;;;;;;7.90;1.80;;;;;;;;;;5085457;28;20040;-56
2021/05/07 11:21:13;;;;;;;;;;;;;;;;;;5067056;28;20065;-59
2021/05/07 11:23:39;;;;;;;4.38;1.70;;;;;;;;;;5064054;28;19932;-57
2021/05/07 11:26:06;;;;;;;6.43;2.05;;;;;;;;;;5066422;28;20037;-60
2021/05/07 11:28:39;;;;;;;4.25;1.88;;;;;;;;;;5068955;28;20040;-61
2021/05/07 11:31:05;;;;;;;5.65;2.10;;;;;;;;;;5073815;28;20036;-60
2021/05/07 11:33:32;;;;;;;6.95;1.80;;;;;;;;;;5088773;28;20039;-60
2021/05/07 11:36:03;;;;;;;5.78;1.80;;;;;;;;;;5085653;28;20036;-59
2021/05/07 11:38:30;;;;;;;6.50;1.98;;;;;;;;;;5075395;28;20044;-54
2021/05/07 11:40:56;;;;;;;3.90;1.65;;;;;;;;;;5087640;28;20036;-55
2021/05/07 11:43:21;;;;;;;4.53;1.77;;;;;;;;;;5107392;28;20113;-60
2021/05/07 11:45:49;;;;;;;5.53;1.80;;;;;;;;;;5085007;28;20054;-58
2021/05/07 11:48:15;;;;;;;6.10;1.60;;;;;;;;;;5102210;28;20077;-61
2021/05/07 11:50:42;;;;;;;4.53;1.85;;;;;;;;;;5107334;28;20023;-58
2021/05/07 11:53:17;;;;;;;5.15;1.83;;;;;;;;;;5072090;28;20040;-59
2021/05/07 11:55:44;;;;;;;4.95;2.28;;;;;;;;;;5068622;28;20052;-58
2021/05/07 11:58:10;;;;;;;3.70;1.88;;;;;;;;;;5082881;28;20068;-60
2021/05/07 12:00:38;;;;;;;4.43;1.98;;;;;;;;;;5086894;28;20046;-60
2021/05/07 12:03:06;;;;;;;7.78;2.10;;;;;;;;;;5099757;28;20731;-59
2021/05/07 12:05:36;;;;;;;4.35;1.65;;;;;;;;;;5087348;28;20096;-59
2021/05/07 12:08:04;;;;;;;6.97;1.50;;;;;;;;;;5102939;28;20043;-60
2021/05/07 12:10:30;;;;;;;6.05;2.00;;;;;;;;;;5087653;28;20040;-56
2021/05/07 12:12:57;;;;;;;5.22;2.28;;;;;;;;;;5086559;28;20085;-58
2021/05/07 12:15:27;;;;;;;10.00;2.30;;;;;;;;;;5106080;28;20042;-60
2021/05/07 12:17:54;;;;;;;6.40;1.58;;;;;;;;;;5085442;28;20046;-61
2021/05/07 12:20:20;;;;;;;3.72;1.30;;;;;;;;;;5068368;28;20043;-60
2021/05/07 12:22:47;;;;;;;4.60;1.42;;;;;;;;;;5064328;28;20043;-61
2021/05/07 12:25:23;;;;;;;3.13;1.27;;;;;;;;;;5102084;28;20035;-58
2021/05/07 12:27:50;;;;;;;5.75;1.58;;;;;;;;;;5063001;28;20028;-56
2021/05/07 12:30:21;;;;;;;6.45;1.50;;;;;;;;;;5063566;28;20037;-55
2021/05/07 12:32:53;;;;;;;3.63;2.13;;;;;;;;;;5063760;28;20043;-57
2021/05/07 12:35:21;;;;;;;7.82;2.67;;;;;;;;;;5085089;28;20099;-57
2021/05/07 12:37:47;;;;;;;3.35;1.55;;;;;;;;;;5083165;28;20347;-59
2021/05/07 12:40:13;;;;;;;3.63;1.30;;;;;;;;;;5077904;28;20072;-53
2021/05/07 12:42:40;;;;;;;3.65;1.60;;;;;;;;;;5085038;28;20041;-56
2021/05/07 12:45:21;;;;;;;3.88;1.42;;;;;;;;;;5081084;28;20052;-59
2021/05/07 12:47:47;;;;;;;6.10;1.73;;;;;;;;;;5084026;28;20470;-59
2021/05/07 12:50:13;;;;;;;4.35;1.83;;;;;;;;;;5079198;28;20055;-56
2021/05/07 12:52:39;;;;;;;4.20;1.88;;;;;;;;;;5083741;28;20037;-58
2021/05/07 12:55:06;;;;;;;4.28;1.73;;;;;;;;;;5082274;28;20047;-55
2021/05/07 12:57:33;;;;;;;6.70;1.70;;;;;;;;;;5085635;28;20036;-55
2021/05/07 13:00:00;;;;;;;3.55;1.52;;;;;;;;;;5081156;28;20040;-55
2021/05/07 13:02:26;;;;;;;3.00;1.40;;;;;;;;;;5085701;28;20036;-60
2021/05/07 13:04:57;;;;;;;3.65;1.35;;;;;;;;;;5078759;28;20047;-58
2021/05/07 13:07:23;;;;;;;3.08;1.40;;;;;;;;;;5084706;28;20040;-61
2021/05/07 13:09:49;;;;;;;4.53;1.80;;;;;;;;;;5080178;28;20091;-61
2021/05/07 13:12:15;;;;;;;2.95;1.50;;;;;;;;;;5086258;28;20125;-61
2021/05/07 13:14:43;;;;;;;4.07;2.00;;;;;;;;;;5080638;28;20052;-55
2021/05/07 13:17:15;;;;;;;4.60;1.83;;;;;;;;;;5085847;28;20044;-56
2021/05/07 13:19:43;;;;;;;4.57;1.63;;;;;;;;;;5081332;28;20067;-57
2021/05/07 13:22:09;;;;;;;7.07;1.70;;;;;;;;;;5083416;28;20051;-61
2021/05/07 13:24:38;;;;;;;7.47;1.80;;;;;;;;;;5083564;28;20399;-58
2021/05/07 13:27:05;;;;;;;6.05;1.73;;;;;;;;;;5101201;28;20740;-56
2021/05/07 13:29:31;;;;;;;3.88;2.00;;;;;;;;;;5102600;28;20052;-60
2021/05/07 13:31:57;;;;;;;4.65;1.73;;;;;;;;;;5084383;28;20253;-59
2021/05/07 13:34:27;;;;;;;7.80;1.65;;;;;;;;;;5083325;28;20041;-59
2021/05/07 13:36:53;;;;;;;6.13;2.20;;;;;;;;;;5079930;28;20040;-58
2021/05/07 13:39:18;;;;;;;4.40;1.90;;;;;;;;;;5084983;28;20051;-55
2021/05/07 13:41:45;;;;;;;4.43;1.98;;;;;;;;;;5080675;28;20025;-60
2021/05/07 13:44:14;;;;;;;7.70;2.35;;;;;;;;;;5084547;28;20040;-61
2021/05/07 13:46:40;;;;;;;9.48;2.60;;;;;;;;;;5079244;28;20030;-58
2021/05/07 13:49:06;;;;;;;4.95;2.08;;;;;;;;;;5084415;28;20138;-56
2021/05/07 13:51:33;;;;;;;5.65;2.38;;;;;;;;;;5079734;28;20028;-57
2021/05/07 13:54:05;;;;;;;9.13;2.42;;;;;;;;;;5084052;28;20032;-57
2021/05/07 13:56:31;;;;;;;4.32;2.30;;;;;;;;;;5080287;28;20112;-57
2021/05/07 13:58:57;;;;;;;5.50;2.20;;;;;;;;;;5083282;28;20044;-58
2021/05/07 14:01:24;;;;;;;7.95;2.47;;;;;;;;;;5084316;28;20450;-59
2021/05/07 14:03:52;;;;;;;4.88;2.20;;;;;;;;;;5087010;28;20032;-62
2021/05/07 14:06:18;;;;;;;7.93;2.00;;;;;;;;;;5083969;28;20691;-59
2021/05/07 14:08:47;;;;;;;7.10;2.08;;;;;;;;;;5087317;28;20044;-60
2021/05/07 14:11:13;;;;;;;6.75;1.85;;;;;;;;;;5085310;28;20036;-61
2021/05/07 14:13:39;;;;;;;4.28;2.10;;;;;;;;;;5083336;28;20037;-57
2021/05/07 14:16:08;;;;;;;6.63;1.95;;;;;;;;;;5086467;28;20040;-58
2021/05/07 14:18:34;;;;;;;8.63;2.28;;;;;;;;;;5083175;28;20047;-60
2021/05/07 14:21:00;;;;;;;7.50;2.60;;;;;;;;;;5085517;28;20025;-58
2021/05/07 14:23:26;;;;;;;5.78;2.28;;;;;;;;;;5081325;28;20040;-57
2021/05/07 14:25:53;;;;;;;4.75;2.33;;;;;;;;;;5087587;28;20048;-54
2021/05/07 14:28:19;;;;;;;7.40;2.83;;;;;;;;;;5100452;28;20080;-58
2021/05/07 14:30:48;;;;;;;9.68;2.83;;;;;;;;;;5079743;28;20039;-59
2021/05/07 14:33:15;;;;;;;8.18;2.45;;;;;;;;;;5086696;28;20091;-55
2021/05/07 14:35:52;;;;;;;4.30;2.20;;;;;;;;;;5106604;28;20068;-58
2021/05/07 14:38:18;;;;;;;4.13;2.10;;;;;;;;;;5085075;28;20040;-60
2021/05/07 14:40:44;;;;;;;5.78;2.50;;;;;;;;;;5088573;28;20043;-60
2021/05/07 14:43:11;;;;;;;5.40;2.15;;;;;;;;;;5084902;28;20042;-58
2021/05/07 14:45:39;;;;;;;5.85;2.45;;;;;;;;;;5085529;28;20033;-58